Aviation Digital Data Service (ADDS)

Output produced by METARs form (0304 UTC 28 August 2014)
found at http://aviationweather.gov/adds/metars/
 
KPOU 272334Z 2800/2824 28006KT P6SM VCSH BKN250 
     TEMPO 2800/2801 4SM -TSRA BR BKN030CB 
     FM280400 VRB03KT P6SM SCT050 SCT120 SCT250 
     FM280800 00000KT P6SM SCT250 
     FM281500 33012KT P6SM SCT040